Time;durP1;ratioP1;P1;durP2;ratioP2;P2;SDS_P1;SDS_P2;PMS_P1;PMS_P2;Temp;Humidity;BMP_temperature;BMP_pressure;BME280_temperature;BME280_humidity;BME280_pressure;Samples;Min_cycle;Max_cycle;Signal;HPM_P1;HPM_P2
2022/07/24 00:02:00;;;;;;;8.40;6.67;;;;;;;18.61;79.52;101713.91;5099063;28;20077;-86
2022/07/24 00:04:25;;;;;;;9.07;6.50;;;;;;;18.57;80.03;101708.03;5098985;28;20034;-86
2022/07/24 00:06:51;;;;;;;7.87;6.27;;;;;;;18.54;79.88;101709.41;5115782;28;20330;-86
2022/07/24 00:09:16;;;;;;;8.00;6.23;;;;;;;18.49;79.20;101712.03;5116542;27;20035;-86
2022/07/24 00:11:42;;;;;;;6.80;6.10;;;;;;;18.48;79.43;101712.28;5119337;27;20483;-86
2022/07/24 00:14:07;;;;;;;10.45;7.03;;;;;;;18.44;78.10;101703.72;5102722;27;20040;-86
2022/07/24 00:16:33;;;;;;;8.23;6.30;;;;;;;18.48;76.47;101706.78;5119614;27;20356;-86
2022/07/24 00:18:58;;;;;;;11.43;6.80;;;;;;;18.49;75.04;101706.53;5102665;27;20502;-86
2022/07/24 00:21:23;;;;;;;8.43;6.43;;;;;;;18.49;73.46;101703.81;5136361;27;20510;-86
2022/07/24 00:23:49;;;;;;;8.37;6.60;;;;;;;18.50;73.60;101697.22;5102599;27;20311;-85
2022/07/24 00:26:14;;;;;;;9.33;6.83;;;;;;;18.49;73.41;101694.72;5137626;27;20038;-85
2022/07/24 00:28:40;;;;;;;7.93;6.43;;;;;;;18.49;72.47;101695.56;5102405;27;20023;-85
2022/07/24 00:31:05;;;;;;;9.82;6.97;;;;;;;18.50;72.37;101696.38;5119938;27;20023;-86
2022/07/24 00:33:31;;;;;;;11.27;6.40;;;;;;;18.49;73.40;101697.47;5119380;27;20031;-85
2022/07/24 00:35:57;;;;;;;9.37;6.37;;;;;;;18.50;71.82;101696.38;5138272;27;20035;-85
2022/07/24 00:38:22;;;;;;;11.10;7.13;;;;;;;18.50;72.02;101704.63;5119310;27;20778;-86
2022/07/24 00:40:48;;;;;;;8.63;7.07;;;;;;;18.47;72.12;101702.38;5103065;27;20027;-85
2022/07/24 00:43:14;;;;;;;9.13;6.72;;;;;;;18.42;71.79;101708.63;5119210;27;20402;-85
2022/07/24 00:45:39;;;;;;;11.83;6.77;;;;;;;18.41;72.84;101705.03;5137267;27;20057;-85
2022/07/24 00:48:06;;;;;;;9.98;6.80;;;;;;;18.40;72.61;101706.13;5137458;27;20041;-86
2022/07/24 00:50:31;;;;;;;9.95;6.80;;;;;;;18.38;72.58;101710.19;5136124;27;20463;-86
2022/07/24 00:52:57;;;;;;;9.37;6.70;;;;;;;18.41;72.83;101705.03;5102352;27;20049;-86
2022/07/24 00:55:23;;;;;;;8.07;6.57;;;;;;;18.38;72.59;101696.44;5101362;27;20051;-86
2022/07/24 00:57:49;;;;;;;10.57;7.38;;;;;;;18.39;72.58;101701.72;5137350;27;20027;-85
2022/07/24 01:00:16;;;;;;;10.52;7.07;;;;;;;18.40;72.86;101695.13;5137322;27;20068;-85
2022/07/24 01:02:42;;;;;;;11.55;6.93;;;;;;;18.40;72.73;101700.63;5119092;27;20118;-86
2022/07/24 01:05:11;;;;;;;8.57;7.17;;;;;;;18.39;72.72;101695.38;5118693;27;20034;-86
2022/07/24 01:07:38;;;;;;;9.30;6.97;;;;;;;18.39;72.86;101698.13;5118776;27;20031;-86
2022/07/24 01:10:05;;;;;;;9.88;7.38;;;;;;;18.34;72.42;101698.03;5118688;27;20053;-86
2022/07/24 01:12:32;;;;;;;8.85;6.72;;;;;;;18.32;73.01;101687.31;5137028;27;20027;-86
2022/07/24 01:14:57;;;;;;;10.05;6.80;;;;;;;18.31;73.15;101685.63;5101610;27;20042;-85
2022/07/24 01:17:24;;;;;;;9.70;6.97;;;;;;;18.29;73.44;101692.44;5137550;27;20027;-85
2022/07/24 01:19:50;;;;;;;9.50;7.03;;;;;;;18.24;73.42;101688.50;5135890;27;20558;-86
2022/07/24 01:22:15;;;;;;;8.65;6.47;;;;;;;18.28;74.05;101688.03;5118545;27;20059;-85
2022/07/24 01:24:41;;;;;;;10.17;6.83;;;;;;;18.27;73.08;101692.69;5101464;27;20062;-85
2022/07/24 01:27:06;;;;;;;11.47;6.70;;;;;;;18.24;73.06;101698.69;5136458;27;20039;-85
2022/07/24 01:29:31;;;;;;;10.60;7.10;;;;;;;18.14;73.52;101693.81;5084414;27;20027;-86
2022/07/24 01:31:58;;;;;;;7.73;6.93;;;;;;;18.02;74.06;101696.59;5135073;27;20421;-86
2022/07/24 01:34:24;;;;;;;9.65;7.35;;;;;;;17.89;74.92;101699.63;5136672;27;20080;-85
2022/07/24 01:36:49;;;;;;;9.50;7.45;;;;;;;17.80;75.13;101693.66;5118343;27;20031;-86
2022/07/24 01:39:15;;;;;;;10.77;7.57;;;;;;;17.75;77.01;101692.75;5135188;27;20114;-86
2022/07/24 01:41:40;;;;;;;10.67;7.60;;;;;;;17.70;76.28;101690.72;5136828;27;20034;-86
2022/07/24 01:44:06;;;;;;;8.97;7.80;;;;;;;17.61;76.42;101693.03;5100972;27;20039;-86
2022/07/24 01:46:31;;;;;;;12.05;8.38;;;;;;;17.51;77.29;101692.81;5084200;27;20038;-85
2022/07/24 01:48:57;;;;;;;13.57;8.60;;;;;;;17.42;77.11;101686.00;5084548;27;20035;-86
2022/07/24 01:51:22;;;;;;;13.10;8.50;;;;;;;17.34;77.64;101681.72;5136518;27;20035;-86
2022/07/24 01:53:48;;;;;;;10.57;8.53;;;;;;;17.30;78.13;101688.78;5136794;27;20034;-85
2022/07/24 01:56:13;;;;;;;11.40;8.85;;;;;;;17.25;78.93;101689.50;5100670;27;20047;-86
2022/07/24 01:58:39;;;;;;;16.07;9.20;;;;;;;17.23;78.54;101685.31;5135817;27;20087;-86
2022/07/24 02:01:05;;;;;;;11.73;8.70;;;;;;;17.20;80.16;101683.91;5117892;27;20031;-86
2022/07/24 02:03:31;;;;;;;13.03;8.57;;;;;;;17.21;80.55;101685.56;5100386;27;20312;-86
2022/07/24 02:05:56;;;;;;;13.53;9.10;;;;;;;17.15;79.54;101683.78;5100654;27;20523;-86
2022/07/24 02:08:21;;;;;;;13.83;8.93;;;;;;;17.14;80.27;101682.94;5117525;27;20292;-86
2022/07/24 02:10:47;;;;;;;13.03;9.53;;;;;;;17.09;80.23;101682.00;5117820;27;20037;-85
2022/07/24 02:13:12;;;;;;;12.87;9.27;;;;;;;17.06;80.10;101685.22;5083409;27;20059;-85
2022/07/24 02:15:38;;;;;;;12.93;9.07;;;;;;;17.10;80.81;101684.50;5117417;27;20118;-85
2022/07/24 02:18:03;;;;;;;11.23;8.75;;;;;;;17.09;82.63;101684.75;5117310;27;20091;-86
2022/07/24 02:20:31;;;;;;;12.10;9.17;;;;;;;17.07;80.87;101682.22;5117762;27;20033;-86
2022/07/24 02:22:57;;;;;;;12.07;8.77;;;;;;;17.07;82.80;101686.91;5118092;27;20027;-85
2022/07/24 02:25:22;;;;;;;11.17;8.83;;;;;;;17.07;82.61;101684.97;5116968;27;20058;-86
2022/07/24 02:27:48;;;;;;;11.77;9.30;;;;;;;17.03;82.08;101674.72;5151433;27;20054;-86
2022/07/24 02:30:19;;;;;;;16.73;8.83;;;;;;;17.01;82.37;101678.53;5116989;27;20387;-86
2022/07/24 02:32:45;;;;;;;14.90;9.40;;;;;;;17.01;84.01;101675.78;5117215;28;20063;-86
2022/07/24 02:35:11;;;;;;;12.13;9.07;;;;;;;17.00;84.47;101685.09;5135140;27;20077;-86
2022/07/24 02:37:38;;;;;;;13.45;8.65;;;;;;;16.98;84.47;101679.00;5117117;27;20034;-85
2022/07/24 02:40:06;;;;;;;14.20;8.88;;;;;;;16.99;84.78;101677.09;5100156;27;20046;-86
2022/07/24 02:42:31;;;;;;;11.73;9.27;;;;;;;16.90;82.57;101682.09;5135271;27;20034;-85
2022/07/24 02:44:57;;;;;;;13.20;9.63;;;;;;;16.85;82.57;101684.69;5116898;27;20027;-85
2022/07/24 02:47:22;;;;;;;15.77;9.90;;;;;;;16.82;83.46;101698.88;5134510;27;20058;-86
2022/07/24 02:49:47;;;;;;;11.67;9.57;;;;;;;16.76;83.14;101697.91;5151070;27;20528;-86
2022/07/24 02:52:13;;;;;;;12.93;10.27;;;;;;;16.68;82.85;101695.50;5116861;27;20058;-85
2022/07/24 02:54:38;;;;;;;14.90;10.30;;;;;;;16.61;83.48;101697.53;5116767;27;20618;-85
2022/07/24 02:57:04;;;;;;;11.87;10.20;;;;;;;16.57;84.00;101694.41;5096493;28;20104;-85
2022/07/24 02:59:29;;;;;;;11.23;9.90;;;;;;;16.54;84.08;101686.69;5100038;27;20458;-85
2022/07/24 03:01:54;;;;;;;14.25;11.35;;;;;;;16.49;84.21;101689.31;5099445;27;20034;-86
2022/07/24 03:04:20;;;;;;;16.50;9.80;;;;;;;16.51;84.84;101695.38;5116656;27;20027;-85
2022/07/24 03:06:45;;;;;;;13.47;10.70;;;;;;;16.48;84.78;101695.84;5082898;27;20058;-86
2022/07/24 03:09:11;;;;;;;15.37;11.07;;;;;;;16.43;84.96;101687.47;5116265;28;20083;-85
2022/07/24 03:11:36;;;;;;;14.73;10.67;;;;;;;16.40;85.02;101677.84;5082734;27;20471;-85
2022/07/24 03:14:02;;;;;;;16.15;11.57;;;;;;;16.38;85.09;101679.13;5134801;27;20034;-85
2022/07/24 03:16:27;;;;;;;14.83;11.07;;;;;;;16.31;85.46;101684.69;5116353;27;20110;-85
2022/07/24 03:18:53;;;;;;;13.35;10.73;;;;;;;16.29;85.32;101684.94;5099393;27;20528;-85
2022/07/24 03:21:19;;;;;;;15.00;11.20;;;;;;;16.24;85.29;101693.03;5083027;27;20121;-86
2022/07/24 03:23:44;;;;;;;15.52;12.18;;;;;;;16.12;85.95;101675.72;5116287;28;20046;-85
2022/07/24 03:26:10;;;;;;;15.33;11.90;;;;;;;16.04;86.25;101681.53;5099423;28;20031;-86
2022/07/24 03:28:35;;;;;;;16.93;12.43;;;;;;;15.95;87.04;101679.09;5116499;28;20019;-85
2022/07/24 03:31:01;;;;;;;15.80;12.00;;;;;;;15.92;87.11;101678.72;5116903;28;20023;-85
2022/07/24 03:33:27;;;;;;;16.85;13.15;;;;;;;15.91;87.50;101688.81;5099804;28;20064;-85
2022/07/24 03:35:53;;;;;;;20.27;13.00;;;;;;;15.91;87.58;101688.81;5134355;28;20027;-85
2022/07/24 03:38:18;;;;;;;15.53;11.80;;;;;;;15.90;87.97;101687.19;5099570;28;20060;-85
2022/07/24 03:40:44;;;;;;;19.13;14.27;;;;;;;15.87;88.05;101684.03;5116156;28;20466;-85
2022/07/24 03:43:10;;;;;;;17.97;14.40;;;;;;;15.83;88.15;101689.16;5099476;28;20130;-85
2022/07/24 03:45:35;;;;;;;18.03;14.47;;;;;;;15.81;88.72;101690.44;5137185;27;20027;-86
2022/07/24 03:48:01;;;;;;;20.35;15.43;;;;;;;15.75;89.30;101684.81;5120661;27;20041;-85
2022/07/24 03:50:26;;;;;;;23.73;14.70;;;;;;;15.75;89.75;101675.75;5091386;28;20051;-85
2022/07/24 03:52:52;;;;;;;20.40;14.83;;;;;;;15.78;89.86;101672.59;5115783;27;20042;-85
2022/07/24 03:55:18;;;;;;;21.33;15.80;;;;;;;15.76;90.03;101678.25;5120709;27;20816;-85
2022/07/24 03:57:43;;;;;;;23.50;17.40;;;;;;;15.72;90.09;101674.34;5120087;27;20165;-85
2022/07/24 04:00:09;;;;;;;25.37;16.77;;;;;;;15.70;90.08;101668.25;5120212;27;20076;-85
2022/07/24 04:02:35;;;;;;;21.70;16.77;;;;;;;15.65;90.52;101672.72;5120217;27;20076;-85
2022/07/24 04:05:00;;;;;;;25.43;17.33;;;;;;;15.65;91.40;101673.56;5102934;27;20117;-86
2022/07/24 04:07:25;;;;;;;32.47;16.90;;;;;;;15.64;91.38;101673.81;5138572;27;20027;-84
2022/07/24 04:09:51;;;;;;;21.47;17.23;;;;;;;15.61;91.31;101675.91;5102593;27;20522;-85
2022/07/24 04:12:16;;;;;;;26.02;18.35;;;;;;;15.61;91.59;101673.19;5119661;27;20551;-85
2022/07/24 04:14:42;;;;;;;23.57;17.43;;;;;;;15.64;92.10;101671.91;5120073;27;20498;-85
2022/07/24 04:17:07;;;;;;;24.80;18.77;;;;;;;15.67;91.94;101665.13;5119827;27;20027;-85
2022/07/24 04:19:33;;;;;;;26.53;20.07;;;;;;;15.69;92.20;101665.72;5120279;27;20023;-85
2022/07/24 04:21:58;;;;;;;32.93;20.60;;;;;;;15.70;92.34;101670.16;5102566;27;20118;-85
2022/07/24 04:24:24;;;;;;;31.83;22.17;;;;;;;15.69;93.35;101679.41;5138042;27;20740;-85
2022/07/24 04:26:49;;;;;;;30.73;21.67;;;;;;;15.71;93.66;101678.13;5119512;27;20058;-85
2022/07/24 04:29:15;;;;;;;32.77;20.87;;;;;;;15.75;93.51;101684.81;5120115;27;20035;-85
2022/07/24 04:31:40;;;;;;;36.75;22.98;;;;;;;15.76;93.77;101685.63;5101987;27;20023;-85
2022/07/24 04:34:06;;;;;;;33.13;22.00;;;;;;;15.78;93.52;101689.00;5102241;27;20428;-86
2022/07/24 04:36:31;;;;;;;33.83;22.90;;;;;;;15.82;93.53;101689.41;5138085;27;20037;-85
2022/07/24 04:38:57;;;;;;;36.53;23.10;;;;;;;15.84;93.22;101682.63;5119213;27;20118;-85
2022/07/24 04:41:23;;;;;;;33.33;23.00;;;;;;;15.85;93.73;101686.19;5119272;27;20055;-85
2022/07/24 04:43:49;;;;;;;38.67;24.40;;;;;;;15.84;93.26;101698.19;5102306;27;20080;-85
2022/07/24 04:46:15;;;;;;;33.88;24.90;;;;;;;15.86;93.51;101691.44;5086002;27;20035;-85
2022/07/24 04:48:40;;;;;;;38.83;24.33;;;;;;;15.86;93.27;101687.88;5102095;27;20028;-85
2022/07/24 04:51:05;;;;;;;36.07;24.60;;;;;;;15.89;94.13;101696.44;5118826;27;20028;-86
2022/07/24 04:53:31;;;;;;;41.03;25.80;;;;;;;15.93;93.81;101696.84;5085091;27;20069;-86
2022/07/24 04:55:57;;;;;;;39.47;25.93;;;;;;;15.95;93.79;101691.94;5117895;28;20051;-85
2022/07/24 04:58:23;;;;;;;41.53;28.00;;;;;;;15.93;94.08;101692.19;5137326;27;20031;-86
2022/07/24 05:00:48;;;;;;;41.83;27.60;;;;;;;15.98;93.85;101691.50;5102122;27;20031;-86
2022/07/24 05:03:14;;;;;;;41.57;27.83;;;;;;;15.99;93.87;101689.56;5118850;27;20071;-85
2022/07/24 05:05:42;;;;;;;41.42;27.38;;;;;;;16.03;94.31;101688.06;5119380;27;20455;-85
2022/07/24 05:08:08;;;;;;;37.23;26.20;;;;;;;16.10;93.86;101680.59;5119034;27;20032;-86
2022/07/24 05:10:33;;;;;;;47.58;27.90;;;;;;;16.14;93.94;101681.81;5084855;27;20383;-86
2022/07/24 05:12:58;;;;;;;42.20;26.47;;;;;;;16.19;94.24;101678.38;5137585;27;20027;-86
2022/07/24 05:15:24;;;;;;;42.23;27.63;;;;;;;16.22;93.90;101689.66;5102064;27;20035;-85
2022/07/24 05:17:49;;;;;;;41.03;26.80;;;;;;;16.27;93.38;101687.09;5101389;27;20023;-86
2022/07/24 05:20:14;;;;;;;42.07;27.27;;;;;;;16.30;93.27;101689.34;5101463;27;20042;-86
2022/07/24 05:22:40;;;;;;;41.13;27.80;;;;;;;16.35;93.65;101691.38;5084638;27;20429;-86
2022/07/24 05:25:06;;;;;;;41.17;28.53;;;;;;;16.37;93.71;101693.88;5118008;27;20269;-85
2022/07/24 05:27:31;;;;;;;41.90;27.73;;;;;;;16.43;93.29;101695.69;5101209;27;20478;-86
2022/07/24 05:29:57;;;;;;;44.90;28.20;;;;;;;16.45;93.28;101699.06;5117869;27;20029;-85
2022/07/24 05:32:22;;;;;;;45.00;29.37;;;;;;;16.48;93.55;101704.88;5118279;27;20048;-85
2022/07/24 05:34:48;;;;;;;47.93;28.07;;;;;;;16.53;93.45;101701.44;5118505;27;20359;-86
2022/07/24 05:37:13;;;;;;;45.37;28.07;;;;;;;16.58;92.71;101709.78;5084487;27;20494;-85
2022/07/24 05:39:39;;;;;;;46.55;26.63;;;;;;;16.65;93.24;101707.78;5118497;27;20467;-90
2022/07/24 05:42:04;;;;;;;39.43;25.40;;;;;;;16.74;92.68;101711.03;5119200;27;20035;-82
2022/07/24 05:44:30;;;;;;;41.03;25.83;;;;;;;16.92;91.19;101704.63;5137198;27;20419;-90
2022/07/24 05:46:55;;;;;;;43.08;25.63;;;;;;;17.04;90.53;101714.75;5118347;27;20080;-90
2022/07/24 05:49:21;;;;;;;44.20;26.87;;;;;;;17.08;89.67;101711.31;5136594;27;20031;-90
2022/07/24 05:51:46;;;;;;;37.87;24.53;;;;;;;17.18;89.37;101708.81;5101058;27;20115;-90
2022/07/24 05:54:11;;;;;;;39.10;25.33;;;;;;;17.22;88.53;101706.44;5084101;27;20165;-86
2022/07/24 05:56:37;;;;;;;41.50;25.88;;;;;;;17.34;88.75;101711.91;5084151;27;20498;-90
2022/07/24 05:59:02;;;;;;;45.67;25.07;;;;;;;17.41;87.92;101704.38;5101286;27;20449;-89
2022/07/24 06:01:28;;;;;;;37.07;25.07;;;;;;;17.46;86.95;101709.97;5117865;27;20035;-89
2022/07/24 06:03:53;;;;;;;39.03;25.13;;;;;;;17.50;86.35;101715.81;5135914;27;20506;-90
2022/07/24 06:06:18;;;;;;;36.87;23.03;;;;;;;17.55;86.24;101718.66;5118098;27;20023;-85
2022/07/24 06:08:45;;;;;;;35.47;23.80;;;;;;;17.63;86.12;101718.31;5135877;27;20882;-91
2022/07/24 06:11:11;;;;;;;38.25;24.10;;;;;;;17.69;85.19;101722.00;5100842;27;20467;-89
2022/07/24 06:13:36;;;;;;;36.30;23.60;;;;;;;17.72;84.89;101718.78;5117542;27;20023;-89
2022/07/24 06:16:02;;;;;;;36.13;23.13;;;;;;;17.74;84.57;101711.13;5118354;27;20371;-89
2022/07/24 06:18:27;;;;;;;39.92;23.58;;;;;;;17.83;84.40;101719.81;5135853;27;20020;-89
2022/07/24 06:20:53;;;;;;;32.17;20.93;;;;;;;17.93;83.65;101716.47;5136030;27;20524;-91
2022/07/24 06:23:18;;;;;;;35.23;22.20;;;;;;;18.00;82.92;101720.75;5100518;27;20035;-90
2022/07/24 06:25:44;;;;;;;34.87;21.33;;;;;;;18.08;82.98;101715.94;5117473;27;20034;-90
2022/07/24 06:28:09;;;;;;;31.77;21.23;;;;;;;18.16;81.96;101716.41;5100636;27;20031;-88
2022/07/24 06:30:35;;;;;;;35.72;20.35;;;;;;;18.21;80.89;101712.91;5117247;27;20027;-90
2022/07/24 06:33:01;;;;;;;28.97;19.93;;;;;;;18.24;81.17;101724.22;5117080;27;20043;-90
2022/07/24 06:35:27;;;;;;;30.45;20.08;;;;;;;18.33;80.77;101721.91;5100405;27;20027;-89
2022/07/24 06:37:55;;;;;;;29.73;18.70;;;;;;;18.40;80.16;101722.59;5100225;27;20043;-90
2022/07/24 06:40:21;;;;;;;32.05;18.30;;;;;;;18.49;79.59;101722.22;5100211;27;20030;-89
2022/07/24 06:42:47;;;;;;;28.17;17.88;;;;;;;18.56;79.91;101720.16;5117315;27;20023;-90
2022/07/24 06:45:13;;;;;;;27.20;17.80;;;;;;;18.62;79.05;101713.66;5116662;27;20042;-90
2022/07/24 06:47:39;;;;;;;23.98;17.10;;;;;;;18.69;78.64;101717.06;5135673;27;20105;-90
2022/07/24 06:50:05;;;;;;;27.60;17.30;;;;;;;18.79;77.03;101719.13;5116901;27;20042;-89
2022/07/24 06:52:31;;;;;;;27.77;17.20;;;;;;;18.84;77.35;101711.00;5100026;27;20031;-90
2022/07/24 06:54:57;;;;;;;26.87;15.20;;;;;;;18.89;75.42;101713.03;5135278;27;20031;-90
2022/07/24 06:57:22;;;;;;;23.48;14.90;;;;;;;19.00;75.28;101716.75;5117625;27;20518;-91
2022/07/24 06:59:48;;;;;;;20.70;14.73;;;;;;;19.07;74.52;101712.78;5116960;27;20364;-91
2022/07/24 07:02:13;;;;;;;25.10;15.70;;;;;;;19.16;75.32;101704.06;5099934;27;20470;-90
2022/07/24 07:04:38;;;;;;;23.48;14.60;;;;;;;19.25;75.38;101705.31;5116902;27;20110;-89
2022/07/24 07:07:06;;;;;;;20.13;13.03;;;;;;;19.31;73.90;101698.81;5134888;27;20110;-89
2022/07/24 07:09:32;;;;;;;15.05;11.13;;;;;;;19.40;71.30;101701.94;5116786;27;20034;-90
2022/07/24 07:11:57;;;;;;;17.47;12.13;;;;;;;19.51;71.89;101694.66;5099445;27;20031;-90
2022/07/24 07:14:22;;;;;;;17.43;10.63;;;;;;;19.58;71.09;101698.06;5083033;27;20031;-90
2022/07/24 07:16:48;;;;;;;15.60;10.13;;;;;;;19.67;70.12;101709.47;5099533;27;20371;-90
2022/07/24 07:19:14;;;;;;;11.52;9.00;;;;;;;19.73;67.64;101716.69;5134047;27;20379;-90
2022/07/24 07:21:39;;;;;;;10.87;7.87;;;;;;;19.80;66.86;101717.38;5099576;28;20031;-90
2022/07/24 07:24:05;;;;;;;12.33;7.90;;;;;;;19.86;67.63;101716.34;5100394;28;20035;-89
2022/07/24 07:26:30;;;;;;;12.53;7.67;;;;;;;19.93;66.74;101721.63;5133194;28;20711;-89
2022/07/24 07:28:56;;;;;;;8.90;6.23;;;;;;;19.97;65.29;101720.88;5100041;28;20474;-91
2022/07/24 07:31:21;;;;;;;7.88;5.70;;;;;;;20.06;64.70;101715.72;5135189;28;20027;-90
2022/07/24 07:33:47;;;;;;;6.37;5.43;;;;;;;20.13;63.39;101708.09;5116475;28;20050;-90
2022/07/24 07:36:13;;;;;;;6.93;4.97;;;;;;;20.24;63.66;101710.97;5135372;28;20363;-90
2022/07/24 07:38:38;;;;;;;7.00;4.60;;;;;;;20.35;64.50;101709.16;5116561;28;20367;-89
2022/07/24 07:41:04;;;;;;;7.10;5.03;;;;;;;20.40;62.39;101711.94;5083245;28;20060;-90
2022/07/24 07:43:30;;;;;;;6.38;4.18;;;;;;;20.47;58.09;101699.63;5134698;28;20506;-90
2022/07/24 07:45:55;;;;;;;4.30;3.90;;;;;;;20.55;58.29;101705.75;5116292;28;20031;-90
2022/07/24 07:48:21;;;;;;;4.17;3.13;;;;;;;20.62;56.77;101712.69;5134338;28;20041;-89
2022/07/24 07:50:47;;;;;;;8.88;2.80;;;;;;;20.71;56.21;101715.03;5134839;28;20037;-91
2022/07/24 07:53:12;;;;;;;6.70;3.70;;;;;;;20.79;56.19;101712.63;5116294;28;20074;-90
2022/07/24 07:55:38;;;;;;;4.03;2.55;;;;;;;20.83;55.02;101702.72;5116512;28;20382;-89
2022/07/24 07:58:03;;;;;;;5.57;2.83;;;;;;;20.89;55.07;101706.38;5115930;28;20059;-88
2022/07/24 08:00:29;;;;;;;3.00;2.60;;;;;;;20.89;54.12;101703.59;5099457;28;20080;-87
2022/07/24 08:02:55;;;;;;;3.97;2.65;;;;;;;20.95;53.93;101698.94;5115811;28;20501;-88
2022/07/24 08:05:20;;;;;;;4.63;2.40;;;;;;;21.00;53.46;101697.03;5116008;28;20055;-89
2022/07/24 08:07:45;;;;;;;4.00;2.50;;;;;;;21.07;52.49;101685.78;5116076;28;20039;-89
2022/07/24 08:10:11;;;;;;;2.95;2.65;;;;;;;21.15;54.12;101699.06;5133832;28;20088;-88
2022/07/24 08:12:37;;;;;;;4.00;2.60;;;;;;;21.24;53.25;101691.13;5098921;28;20054;-88
2022/07/24 08:15:03;;;;;;;5.57;2.70;;;;;;;21.28;53.19;101700.53;5115864;28;20039;-88
2022/07/24 08:17:28;;;;;;;2.73;2.43;;;;;;;21.34;53.08;101696.72;5099326;28;20031;-87
2022/07/24 08:19:54;;;;;;;3.03;2.70;;;;;;;21.44;53.22;101692.38;5098912;28;20382;-88
2022/07/24 08:22:19;;;;;;;2.90;2.60;;;;;;;21.47;53.03;101702.88;5115710;28;20390;-88
2022/07/24 08:24:45;;;;;;;3.13;2.83;;;;;;;21.49;51.90;101704.22;5116060;28;20027;-88
2022/07/24 08:27:10;;;;;;;3.67;2.70;;;;;;;21.52;53.13;101702.91;5115791;28;20032;-88
2022/07/24 08:29:35;;;;;;;3.60;2.92;;;;;;;21.56;53.34;101698.50;5081549;28;20027;-88
2022/07/24 08:32:01;;;;;;;3.87;2.27;;;;;;;21.63;54.53;101706.53;5085505;27;20024;-88
2022/07/24 08:34:26;;;;;;;6.23;2.87;;;;;;;21.73;53.37;101723.16;5119575;27;20509;-88
2022/07/24 08:36:52;;;;;;;6.53;3.10;;;;;;;21.77;53.42;101704.13;5102258;27;20119;-88
2022/07/24 08:39:17;;;;;;;3.40;2.60;;;;;;;21.86;54.89;101714.38;5085450;27;20061;-88
2022/07/24 08:41:43;;;;;;;3.97;3.27;;;;;;;21.92;53.48;101706.94;5102306;27;20371;-88
2022/07/24 08:44:10;;;;;;;6.03;2.97;;;;;;;21.99;53.53;101699.22;5102106;27;20172;-88
2022/07/24 08:46:41;;;;;;;5.00;3.08;;;;;;;22.09;54.91;101692.91;5119336;27;20035;-88
2022/07/24 08:49:11;;;;;;;7.47;3.50;;;;;;;22.19;54.32;101689.31;5119030;27;20023;-88
2022/07/24 08:51:38;;;;;;;4.30;3.20;;;;;;;22.23;53.89;101688.50;5137152;27;20031;-88
2022/07/24 08:54:04;;;;;;;4.88;3.50;;;;;;;22.25;53.95;101680.75;5101985;27;20432;-88
2022/07/24 08:56:29;;;;;;;4.93;3.15;;;;;;;22.30;53.98;101691.00;5137656;27;20039;-88
2022/07/24 08:58:55;;;;;;;4.43;3.27;;;;;;;22.38;53.78;101687.72;5119119;27;20380;-88
2022/07/24 09:01:21;;;;;;;4.70;3.88;;;;;;;22.40;53.73;101688.28;5118751;27;20534;-88
2022/07/24 09:03:47;;;;;;;4.10;3.30;;;;;;;22.50;54.73;101698.53;5119150;27;20118;-88
2022/07/24 09:06:14;;;;;;;6.43;3.73;;;;;;;22.62;54.13;101697.41;5118789;27;20680;-88
2022/07/24 09:08:58;;;;;;;4.82;3.50;;;;;;;22.70;54.91;101686.63;5118940;27;20039;-88
2022/07/24 09:11:23;;;;;;;4.25;3.50;;;;;;;22.75;53.14;101689.41;5118370;27;20031;-88
2022/07/24 09:16:35;;;;;;;3.95;3.53;;;;;;;22.85;53.23;101683.00;5137705;27;20112;-88
2022/07/24 09:19:07;;;;;;;4.17;3.30;;;;;;;22.92;54.26;101683.56;5101531;27;20455;-88
2022/07/24 09:21:35;;;;;;;5.25;3.30;;;;;;;23.04;53.93;101674.97;5118412;27;20027;-88
2022/07/24 09:24:03;;;;;;;4.53;3.90;;;;;;;23.14;54.45;101671.38;5136951;27;20027;-88
2022/07/24 09:26:46;;;;;;;4.95;3.40;;;;;;;23.18;53.26;101666.94;5101740;27;20035;-88
2022/07/24 09:29:12;;;;;;;4.32;3.50;;;;;;;23.18;52.62;101660.56;5136725;27;20114;-88
2022/07/24 09:31:58;;;;;;;4.03;3.53;;;;;;;23.19;52.70;101668.59;5118612;27;20031;-87
2022/07/24 09:34:26;;;;;;;4.93;3.05;;;;;;;23.23;52.58;101663.34;5118089;27;20034;-89
2022/07/24 09:37:03;;;;;;;7.55;3.00;;;;;;;23.33;52.70;101662.50;5137092;27;20091;-88
2022/07/24 09:39:33;;;;;;;4.80;3.00;;;;;;;23.38;51.91;101654.16;5119004;27;20023;-88
2022/07/24 09:42:00;;;;;;;3.60;3.00;;;;;;;23.37;52.42;101655.25;5118132;28;20030;-88
2022/07/24 09:44:26;;;;;;;4.00;3.07;;;;;;;23.47;52.25;101650.53;5101276;27;20084;-88
2022/07/24 09:47:00;;;;;;;5.43;3.00;;;;;;;23.59;52.74;101657.66;5118062;27;20024;-88
2022/07/24 09:49:27;;;;;;;4.22;3.10;;;;;;;23.64;51.45;101652.94;5135999;27;20023;-88
2022/07/24 09:52:04;;;;;;;4.53;2.67;;;;;;;23.73;51.40;101653.16;5136168;27;20027;-88
2022/07/24 09:54:35;;;;;;;2.75;2.50;;;;;;;23.80;51.17;101648.13;5136414;27;20034;-88
2022/07/24 09:57:23;;;;;;;4.20;3.40;;;;;;;23.92;51.77;101645.06;5137421;27;20054;-88
2022/07/24 09:59:53;;;;;;;3.03;2.72;;;;;;;24.09;50.92;101646.59;5136070;27;20027;-88
2022/07/24 10:02:22;;;;;;;4.53;3.08;;;;;;;24.12;50.13;101630.25;5136340;27;20112;-88
2022/07/24 10:04:50;;;;;;;4.72;2.80;;;;;;;24.16;49.74;101642.38;5135994;27;20035;-88
2022/07/24 10:07:18;;;;;;;3.50;3.20;;;;;;;24.24;49.95;101643.75;5152732;27;20035;-88
2022/07/24 10:09:46;;;;;;;2.93;2.63;;;;;;;24.28;48.74;101635.66;5117534;27;20444;-89
2022/07/24 10:12:14;;;;;;;3.38;2.90;;;;;;;24.41;48.95;101632.22;5121486;27;20031;-87
2022/07/24 10:14:41;;;;;;;3.90;3.25;;;;;;;24.52;48.59;101647.66;5139016;27;20079;-88
2022/07/24 10:17:08;;;;;;;4.05;3.10;;;;;;;24.62;49.10;101630.13;5117405;27;20035;-88
2022/07/24 10:19:49;;;;;;;3.17;2.80;;;;;;;24.75;49.73;101633.34;5134606;27;20050;-89
2022/07/24 10:22:16;;;;;;;3.73;2.90;;;;;;;24.91;48.57;101634.03;5118438;27;20034;-90
2022/07/24 10:24:47;;;;;;;3.17;2.83;;;;;;;25.02;46.82;101628.06;5117250;27;20038;-91
2022/07/24 10:27:37;;;;;;;3.72;3.05;;;;;;;25.15;47.98;101623.72;5117622;27;20042;-89
2022/07/24 10:30:06;;;;;;;3.33;3.03;;;;;;;25.33;47.01;101615.78;5109409;27;20432;-89
2022/07/24 10:32:34;;;;;;;3.80;2.97;;;;;;;25.45;46.84;101609.81;5135530;27;20447;-86
2022/07/24 10:35:15;;;;;;;4.30;2.80;;;;;;;25.68;46.64;101617.25;5116838;27;20083;-85
2022/07/24 10:37:59;;;;;;;3.50;2.58;;;;;;;25.84;45.17;101611.50;5135531;27;20027;-86
2022/07/24 10:40:39;;;;;;;3.08;2.78;;;;;;;25.88;44.13;101607.81;5117129;27;20432;-86
2022/07/24 10:43:05;;;;;;;3.17;2.63;;;;;;;25.95;43.63;101603.81;5116910;27;20045;-86
2022/07/24 10:45:31;;;;;;;3.43;2.70;;;;;;;26.08;43.19;101605.88;5135315;27;20023;-86
2022/07/24 10:47:57;;;;;;;3.67;2.80;;;;;;;26.23;43.27;101607.56;5116769;27;20042;-86
2022/07/24 10:50:22;;;;;;;3.57;2.70;;;;;;;26.25;41.38;101610.88;5116754;27;20467;-86
2022/07/24 10:52:48;;;;;;;3.53;3.00;;;;;;;26.25;41.10;101613.66;5133973;27;20031;-85
2022/07/24 10:55:29;;;;;;;3.50;3.20;;;;;;;26.37;42.15;101597.31;5132843;27;20459;-85
2022/07/24 10:57:57;;;;;;;3.20;2.90;;;;;;;26.48;42.33;101595.16;5134982;27;20097;-85
2022/07/24 11:00:34;;;;;;;3.97;3.25;;;;;;;26.64;42.68;101590.16;5135012;27;20098;-85
2022/07/24 11:03:05;;;;;;;5.93;3.17;;;;;;;26.84;41.60;101594.56;5134871;27;20471;-85
2022/07/24 11:05:38;;;;;;;3.30;3.00;;;;;;;27.19;42.16;101592.16;5135425;27;20023;-85
2022/07/24 11:08:12;;;;;;;3.30;2.97;;;;;;;27.33;40.65;101594.09;5116339;27;20133;-86
2022/07/24 11:10:47;;;;;;;3.72;3.10;;;;;;;27.32;40.51;101593.28;5134890;27;20027;-85
2022/07/24 11:13:31;;;;;;;3.13;2.90;;;;;;;27.31;40.31;101592.47;5117217;27;20062;-85
2022/07/24 11:16:15;;;;;;;4.18;2.90;;;;;;;27.41;40.55;101597.03;5116416;28;20081;-85
2022/07/24 11:18:40;;;;;;;3.30;3.00;;;;;;;27.46;40.14;101587.72;5116394;28;20432;-85